createdAt,value
2022-11-22T04:08:56.356Z,21.73
2022-11-22T04:11:32.123Z,22.60
2022-11-22T04:14:17.700Z,22.83
2022-11-22T04:16:45.961Z,23.33
2022-11-22T04:19:14.165Z,22.37
2022-11-22T04:21:42.730Z,23.23
2022-11-22T04:24:30.385Z,22.10
2022-11-22T04:26:59.254Z,21.07
2022-11-22T04:29:27.617Z,23.90
2022-11-22T04:32:13.443Z,23.97
2022-11-22T04:34:41.509Z,24.93
2022-11-22T04:37:09.744Z,22.00
2022-11-22T04:39:39.277Z,23.90
2022-11-22T04:42:25.136Z,23.90
2022-11-22T04:44:53.230Z,23.30
2022-11-22T04:47:38.958Z,23.50
2022-11-22T04:50:30.026Z,22.77
2022-11-22T04:52:58.128Z,23.37
2022-11-22T04:55:27.634Z,23.40
2022-11-22T04:57:59.606Z,24.80
2022-11-22T05:00:28.832Z,22.63
2022-11-22T05:02:57.092Z,23.30
2022-11-22T05:05:25.962Z,23.03
2022-11-22T05:07:54.273Z,26.33
2022-11-22T05:10:26.554Z,26.00
2022-11-22T05:12:57.252Z,25.00
2022-11-22T05:15:25.796Z,24.37
2022-11-22T05:17:53.921Z,23.47
2022-11-22T05:20:22.021Z,23.00
2022-11-22T05:23:07.281Z,27.13
2022-11-22T05:25:35.404Z,25.50
2022-11-22T05:28:04.917Z,23.00
2022-11-22T05:30:33.075Z,25.40
2022-11-22T05:33:01.292Z,24.20
2022-11-22T05:35:29.432Z,25.27
2022-11-22T05:37:57.931Z,26.03
2022-11-22T05:40:26.495Z,24.77
2022-11-22T05:42:54.990Z,23.87
2022-11-22T05:45:24.665Z,25.17
2022-11-22T05:47:52.844Z,24.43
2022-11-22T05:50:21.129Z,24.90
2022-11-22T05:52:55.496Z,23.67
2022-11-22T05:55:23.831Z,23.10
2022-11-22T05:57:52.041Z,24.77
2022-11-22T06:00:20.703Z,23.30
2022-11-22T06:02:50.258Z,25.23
2022-11-22T06:05:18.391Z,25.03
2022-11-22T06:07:47.325Z,24.20
2022-11-22T06:10:15.776Z,26.23
2022-11-22T06:12:46.509Z,25.00
2022-11-22T06:15:16.727Z,25.93
2022-11-22T06:17:45.271Z,25.23
2022-11-22T06:20:15.208Z,24.23
2022-11-22T06:22:43.624Z,25.83
2022-11-22T06:25:12.495Z,26.70
2022-11-22T06:27:40.681Z,24.57
2022-11-22T06:30:10.128Z,24.03
2022-11-22T06:32:38.275Z,26.47
2022-11-22T06:35:07.414Z,27.67
2022-11-22T06:37:39.174Z,25.40
2022-11-22T06:40:11.799Z,24.87
2022-11-22T06:42:40.211Z,27.07
2022-11-22T06:45:09.434Z,25.13
2022-11-22T06:47:37.533Z,26.90
2022-11-22T06:50:05.979Z,25.50
2022-11-22T06:52:34.080Z,25.77
2022-11-22T06:55:07.868Z,25.83
2022-11-22T06:57:36.467Z,25.57
2022-11-22T07:00:05.606Z,27.73
2022-11-22T07:02:33.714Z,26.60
2022-11-22T07:05:24.642Z,25.50
2022-11-22T07:07:50.168Z,25.53
2022-11-22T07:10:20.108Z,26.80
2022-11-22T07:12:48.212Z,25.07
2022-11-22T07:15:16.286Z,26.47
2022-11-22T07:17:44.684Z,26.77
2022-11-22T07:20:13.026Z,25.13
2022-11-22T07:22:41.105Z,26.00
2022-11-22T07:25:09.861Z,27.27
2022-11-22T07:27:39.398Z,26.03
2022-11-22T07:30:08.897Z,25.93
2022-11-22T07:32:37.024Z,24.80
2022-11-22T07:35:05.711Z,28.47
2022-11-22T07:37:33.992Z,29.23
2022-11-22T07:40:02.111Z,28.63
2022-11-22T07:42:30.214Z,25.93
2022-11-22T07:44:59.709Z,28.33
2022-11-22T07:47:27.884Z,27.63
2022-11-22T07:49:55.977Z,28.20
2022-11-22T07:52:24.134Z,28.70
2022-11-22T07:54:52.201Z,26.67
2022-11-22T07:57:20.347Z,28.50
2022-11-22T07:59:48.555Z,29.57
2022-11-22T08:02:18.015Z,29.20
2022-11-22T08:04:46.328Z,29.87
2022-11-22T08:07:14.537Z,28.77
2022-11-22T08:09:42.748Z,30.37
2022-11-22T08:12:11.609Z,28.57
2022-11-22T08:14:39.854Z,27.87
2022-11-22T08:17:08.109Z,28.10
2022-11-22T08:19:37.677Z,30.57
2022-11-22T08:22:06.004Z,29.83
2022-11-22T08:24:35.639Z,30.83
2022-11-22T08:27:03.805Z,30.20
2022-11-22T08:29:32.328Z,29.80
2022-11-22T08:32:00.752Z,29.50
2022-11-22T08:34:29.148Z,26.77
2022-11-22T08:36:58.830Z,29.33
2022-11-22T08:39:27.695Z,30.30
2022-11-22T08:41:55.947Z,29.13
2022-11-22T08:44:24.420Z,30.60
2022-11-22T08:46:52.626Z,30.03
2022-11-22T08:49:20.794Z,30.07
2022-11-22T08:51:53.795Z,30.20
2022-11-22T08:54:23.506Z,30.47
2022-11-22T08:56:54.538Z,29.53
2022-11-22T08:59:22.913Z,29.87
2022-11-22T09:01:51.265Z,29.10
2022-11-22T09:04:21.476Z,30.17
2022-11-22T09:09:41.846Z,32.00
2022-11-22T09:12:10.170Z,29.97
2022-11-22T09:14:38.441Z,30.77
2022-11-22T09:17:07.430Z,28.77
2022-11-22T09:19:35.758Z,29.13
2022-11-22T09:22:03.921Z,28.17
2022-11-22T09:24:34.473Z,30.37
2022-11-22T09:27:04.190Z,29.80
2022-11-22T09:29:32.753Z,28.67
2022-11-22T09:32:01.360Z,30.77
2022-11-22T09:34:29.727Z,29.10
2022-11-22T09:36:58.070Z,29.10
2022-11-22T09:39:26.338Z,31.23
2022-11-22T09:42:12.541Z,29.60
2022-11-22T09:44:57.173Z,31.93
2022-11-22T09:47:36.522Z,30.57
2022-11-22T09:50:16.584Z,29.43
2022-11-22T09:52:50.366Z,30.43
2022-11-22T09:55:24.912Z,29.70
2022-11-22T09:58:05.704Z,30.27
2022-11-22T10:00:36.050Z,31.90
2022-11-22T10:03:11.797Z,30.00
2022-11-22T10:05:49.905Z,30.23
2022-11-22T10:08:28.631Z,27.30
2022-11-22T10:10:59.951Z,29.03
2022-11-22T10:13:35.028Z,30.33
2022-11-22T10:16:08.525Z,28.67
2022-11-22T10:18:41.443Z,32.07
2022-11-22T10:21:13.788Z,31.40
2022-11-22T10:23:43.232Z,31.43
2022-11-22T10:26:21.969Z,31.23
2022-11-22T10:29:02.446Z,31.03
2022-11-22T10:31:36.502Z,31.97
2022-11-22T10:34:12.809Z,31.70
2022-11-22T10:36:49.933Z,30.17
2022-11-22T10:39:34.259Z,32.40
2022-11-22T10:42:28.873Z,29.57
2022-11-22T10:45:06.131Z,32.13
2022-11-22T10:47:52.925Z,30.03
2022-11-22T10:50:26.510Z,30.87
2022-11-22T10:53:03.048Z,29.77
2022-11-22T10:55:49.606Z,30.63
2022-11-22T10:58:28.519Z,31.97
2022-11-22T11:01:03.915Z,31.93
2022-11-22T11:03:34.410Z,32.20
2022-11-22T11:06:22.773Z,30.63
2022-11-22T11:10:03.133Z,29.80
2022-11-22T11:11:48.162Z,29.63
2022-11-22T11:14:26.780Z,29.07
2022-11-22T11:16:56.353Z,29.43
2022-11-22T11:19:25.608Z,34.37
2022-11-22T11:22:00.807Z,32.57
2022-11-22T11:24:31.292Z,30.93
2022-11-22T11:27:02.010Z,30.53
2022-11-22T11:29:41.834Z,29.63
2022-11-22T11:32:14.224Z,29.67
2022-11-22T11:34:49.093Z,29.93
2022-11-22T11:37:25.591Z,27.10
2022-11-22T11:39:54.022Z,29.17
2022-11-22T11:42:30.578Z,30.10
2022-11-22T11:45:21.276Z,27.67
2022-11-22T11:47:50.907Z,26.30
2022-11-22T11:50:24.327Z,26.93
2022-11-22T11:52:55.936Z,28.57
2022-11-22T11:55:24.527Z,26.73
2022-11-22T11:57:54.366Z,30.87
2022-11-22T12:00:27.026Z,30.37
2022-11-22T12:03:01.445Z,26.83
2022-11-22T12:05:32.327Z,26.03
2022-11-22T12:08:01.615Z,24.63
2022-11-22T12:10:34.768Z,28.13
2022-11-22T12:13:09.258Z,26.10
2022-11-22T12:15:47.751Z,26.53
2022-11-22T12:18:31.874Z,27.43
2022-11-22T12:21:13.787Z,25.53
2022-11-22T12:23:51.228Z,24.63
2022-11-22T12:26:20.389Z,27.13
2022-11-22T12:28:50.992Z,25.90
2022-11-22T12:31:28.510Z,26.47
2022-11-22T12:34:01.975Z,25.07
2022-11-22T12:36:41.405Z,27.13
2022-11-22T12:39:17.716Z,28.37
2022-11-22T12:41:49.178Z,25.57
2022-11-22T12:44:20.808Z,24.53
2022-11-22T12:46:53.616Z,23.73
2022-11-22T12:49:32.257Z,22.13
2022-11-22T12:52:09.885Z,20.53
2022-11-22T12:54:43.911Z,21.43
2022-11-22T12:57:16.902Z,21.00
2022-11-22T12:59:56.114Z,20.00
2022-11-22T13:02:33.045Z,18.90
2022-11-22T13:05:09.364Z,18.03
2022-11-22T13:07:51.101Z,20.03
2022-11-22T13:10:31.774Z,16.10
2022-11-22T13:13:08.384Z,14.90
2022-11-22T13:15:40.690Z,13.83
2022-11-22T13:18:13.006Z,14.30
2022-11-22T13:20:50.633Z,15.33
2022-11-22T13:23:42.909Z,15.83
2022-11-22T13:26:19.134Z,15.47
2022-11-22T13:28:49.163Z,16.10
2022-11-22T13:31:23.476Z,17.50
2022-11-22T13:33:59.993Z,16.37
2022-11-22T13:36:49.118Z,17.27
2022-11-22T13:39:21.625Z,15.90
2022-11-22T13:42:06.237Z,17.07
2022-11-22T13:44:50.835Z,17.60
2022-11-22T13:47:43.145Z,17.27
2022-11-22T13:50:56.450Z,17.80
2022-11-22T13:53:40.466Z,17.63
2022-11-22T13:56:46.227Z,17.80
2022-11-22T13:59:17.263Z,18.20
2022-11-22T14:02:01.729Z,16.77
2022-11-22T14:04:51.338Z,16.87
2022-11-22T14:07:35.678Z,17.33
2022-11-22T14:10:24.954Z,15.90
2022-11-22T14:13:21.372Z,15.10
2022-11-22T14:16:01.577Z,15.70
2022-11-22T14:18:49.607Z,16.80
2022-11-22T14:21:41.907Z,15.83
2022-11-22T14:24:17.937Z,15.47
2022-11-22T14:26:55.799Z,14.57
2022-11-22T14:30:06.009Z,14.87
2022-11-22T14:32:51.188Z,13.47
2022-11-22T14:35:30.495Z,14.73
2022-11-22T14:38:31.607Z,14.87
2022-11-22T14:41:37.385Z,14.87
2022-11-22T14:44:11.637Z,14.33
2022-11-22T14:46:53.152Z,14.33
2022-11-22T14:49:31.788Z,15.57
2022-11-22T14:52:01.296Z,17.27
2022-11-22T14:54:32.990Z,15.77
2022-11-22T14:57:05.451Z,15.07
2022-11-22T15:00:07.487Z,17.17
2022-11-22T15:03:10.802Z,16.30
2022-11-22T15:09:13.543Z,18.03
2022-11-22T15:09:18.601Z,16.50
2022-11-22T15:12:01.081Z,15.97
2022-11-22T15:58:13.788Z,16.17
2022-11-22T16:00:45.219Z,17.63
2022-11-22T16:03:23.926Z,18.47
2022-11-22T16:06:08.847Z,17.07
2022-11-22T16:08:49.077Z,17.60
2022-11-22T16:11:26.784Z,17.37
2022-11-22T16:13:55.044Z,17.67
2022-11-22T16:16:28.340Z,18.07
2022-11-22T16:19:20.931Z,17.83
2022-11-22T16:21:57.423Z,17.67
2022-11-22T16:24:29.962Z,18.53
2022-11-22T16:27:00.472Z,18.60
2022-11-22T16:29:32.315Z,19.03
2022-11-22T16:32:03.469Z,17.07
2022-11-22T16:34:31.629Z,18.90
2022-11-22T16:37:00.125Z,18.60
2022-11-22T16:39:30.964Z,18.27
2022-11-22T16:41:59.741Z,17.70
2022-11-22T16:44:27.905Z,18.20
2022-11-22T16:46:56.039Z,18.50
2022-11-22T16:49:24.499Z,17.30
2022-11-22T16:51:53.005Z,17.17
2022-11-22T16:54:23.951Z,18.03
2022-11-22T16:56:53.513Z,17.90
2022-11-22T16:59:21.880Z,17.83
2022-11-22T17:01:50.523Z,17.97
2022-11-22T17:04:23.472Z,19.27
2022-11-22T17:06:52.364Z,17.67
2022-11-22T17:09:21.557Z,18.20
2022-11-22T17:11:50.399Z,16.93
2022-11-22T17:14:20.802Z,19.37
2022-11-22T17:16:53.304Z,18.73
2022-11-22T17:19:51.366Z,18.37
2022-11-22T17:22:10.216Z,18.67
2022-11-22T17:24:41.293Z,18.47
2022-11-22T17:27:11.848Z,18.17
2022-11-22T17:29:56.870Z,18.03
2022-11-22T17:32:25.370Z,18.23
2022-11-22T17:34:53.630Z,18.60
2022-11-22T17:37:21.800Z,18.03
2022-11-22T17:39:52.436Z,18.67
2022-11-22T17:42:20.715Z,18.93
2022-11-22T17:44:50.811Z,17.67
2022-11-22T17:47:19.234Z,20.20
2022-11-22T17:49:48.994Z,17.67
2022-11-22T17:52:19.336Z,20.57
2022-11-22T17:54:47.840Z,19.90
2022-11-22T17:57:16.173Z,21.27
2022-11-22T17:59:45.055Z,19.87
2022-11-22T18:02:15.405Z,19.07
2022-11-22T18:04:44.672Z,19.67
2022-11-22T18:07:13.246Z,20.67
2022-11-22T18:09:41.742Z,20.77
2022-11-22T18:12:10.073Z,20.00
2022-11-22T18:14:38.646Z,20.50
2022-11-22T18:17:09.838Z,19.87
2022-11-22T18:19:39.592Z,20.53
2022-11-22T18:22:08.280Z,19.87
2022-11-22T18:24:36.574Z,20.33
2022-11-22T18:27:04.896Z,21.70
2022-11-22T18:29:42.206Z,22.37
2022-11-22T18:32:21.183Z,19.27
2022-11-22T18:34:50.715Z,20.93
2022-11-22T18:37:18.938Z,21.13
2022-11-22T18:39:47.081Z,21.17
2022-11-22T18:42:16.982Z,20.87
2022-11-22T18:44:45.145Z,20.73
2022-11-22T18:47:13.277Z,22.07
2022-11-22T18:49:41.591Z,22.07
2022-11-22T18:52:13.484Z,21.90
2022-11-22T18:54:46.752Z,20.90
2022-11-22T18:57:16.008Z,21.33
2022-11-22T18:59:44.252Z,22.30
2022-11-22T19:02:12.401Z,21.57
2022-11-22T19:04:40.558Z,21.10
2022-11-22T19:07:10.076Z,22.70
2022-11-22T19:09:38.417Z,21.13
2022-11-22T19:12:07.012Z,22.33
2022-11-22T19:14:35.315Z,22.37
2022-11-22T19:17:03.479Z,22.87
2022-11-22T19:19:32.361Z,22.37
2022-11-22T19:22:00.785Z,21.37
2022-11-22T19:24:30.769Z,21.50
2022-11-22T19:26:59.135Z,21.70
2022-11-22T19:29:27.408Z,22.47
2022-11-22T19:31:55.567Z,22.77
2022-11-22T19:34:23.871Z,22.57
2022-11-22T19:36:52.063Z,21.60
2022-11-22T19:39:21.062Z,23.40
2022-11-22T19:41:50.654Z,22.40
2022-11-22T19:44:19.177Z,21.73
2022-11-22T19:46:47.705Z,22.07
2022-11-22T19:49:17.969Z,21.83
2022-11-22T19:51:46.300Z,22.00
2022-11-22T19:54:16.310Z,20.57
2022-11-22T19:56:44.820Z,22.07
2022-11-22T19:59:16.160Z,21.97
2022-11-22T20:01:44.821Z,21.87
2022-11-22T20:04:15.224Z,22.13
2022-11-22T20:06:48.580Z,22.20
2022-11-22T20:09:18.427Z,23.23
2022-11-22T20:11:46.983Z,21.87
2022-11-22T20:14:16.690Z,22.43
2022-11-22T20:16:46.441Z,21.87
2022-11-22T20:19:15.680Z,21.77
2022-11-22T20:21:43.901Z,22.43
2022-11-22T20:24:13.325Z,21.80
2022-11-22T20:26:41.434Z,21.27
2022-11-22T20:29:14.297Z,20.07
2022-11-22T20:31:43.841Z,20.50
2022-11-22T20:34:12.106Z,21.70
2022-11-22T20:36:40.269Z,20.20
2022-11-22T20:39:10.741Z,22.60
2022-11-22T20:41:39.770Z,21.03
2022-11-22T20:44:08.203Z,22.57
2022-11-22T20:46:37.939Z,22.23
2022-11-22T20:49:09.761Z,22.27
2022-11-22T20:51:39.883Z,21.17
2022-11-22T20:54:08.956Z,21.30
2022-11-22T20:56:37.980Z,22.37
2022-11-22T20:59:06.938Z,22.20
2022-11-22T21:01:35.144Z,20.83
2022-11-22T21:04:03.609Z,19.70
2022-11-22T21:06:35.104Z,23.10
2022-11-22T21:09:03.448Z,20.07
2022-11-22T21:11:32.172Z,21.40
2022-11-22T21:14:00.659Z,23.43
2022-11-22T21:16:30.198Z,28.65
2022-11-22T21:19:01.356Z,24.10
2022-11-22T21:21:31.226Z,24.03
2022-11-22T21:24:02.344Z,22.37
2022-11-22T21:26:31.123Z,21.73
2022-11-22T21:29:00.448Z,20.97
2022-11-22T21:31:29.728Z,19.90
2022-11-22T21:33:57.984Z,20.37
2022-11-22T21:36:26.457Z,20.63
2022-11-22T21:38:54.719Z,21.67
2022-11-22T21:41:38.934Z,21.93
2022-11-22T21:44:08.537Z,21.33
2022-11-22T21:46:36.836Z,21.00
2022-11-22T21:49:05.103Z,21.20
2022-11-22T21:51:33.432Z,22.70
2022-11-22T21:54:02.825Z,21.70
2022-11-22T21:56:34.184Z,23.53
2022-11-22T21:59:02.768Z,22.60
2022-11-22T22:01:31.236Z,24.10
2022-11-22T22:03:59.626Z,23.20
2022-11-22T22:06:27.834Z,20.57
2022-11-22T22:08:56.089Z,23.13
2022-11-22T22:11:24.464Z,22.00
2022-11-22T22:13:55.379Z,20.03
2022-11-22T22:16:26.146Z,20.20
2022-11-22T22:18:54.895Z,20.90
2022-11-22T22:21:23.280Z,21.90
2022-11-22T22:23:51.733Z,24.03
2022-11-22T22:26:20.454Z,21.00
2022-11-22T22:28:48.953Z,21.27
2022-11-22T22:31:22.780Z,21.30
2022-11-22T22:33:52.591Z,21.67
2022-11-22T22:36:21.001Z,20.80
2022-11-22T22:38:49.896Z,20.73
2022-11-22T22:41:18.621Z,22.57
2022-11-22T22:43:48.728Z,21.03
2022-11-22T22:46:20.703Z,21.60
2022-11-22T22:48:49.958Z,21.83
2022-11-22T22:51:20.166Z,21.53
2022-11-22T22:53:49.146Z,20.27
2022-11-22T22:56:19.835Z,20.87
2022-11-22T22:58:48.054Z,21.57
2022-11-22T23:01:19.507Z,20.43
